Time;durP1;ratioP1;P1;durP2;ratioP2;P2;SDS_P1;SDS_P2;PMS_P1;PMS_P2;Temp;Humidity;BMP_temperature;BMP_pressure;BME280_temperature;BME280_humidity;BME280_pressure;Samples;Min_cycle;Max_cycle;Signal;HPM_P1;HPM_P2
2023/05/11 00:00:04;;;;;;;37.00;24.40;;;14.20;98.10;;;;;;5113910;28;20387;-73
2023/05/11 00:02:29;;;;;;;38.72;24.00;;;14.20;96.90;;;;;;5113085;28;20372;-74
2023/05/11 00:04:55;;;;;;;40.03;26.27;;;14.20;96.70;;;;;;5113185;28;20406;-75
2023/05/11 00:07:21;;;;;;;37.67;25.13;;;14.10;99.90;;;;;;5113912;28;20527;-72
2023/05/11 00:09:46;;;;;;;38.50;25.67;;;14.00;99.90;;;;;;5114286;28;20388;-73
2023/05/11 00:12:13;;;;;;;42.37;27.47;;;14.00;99.90;;;;;;5095074;28;20734;-75
2023/05/11 00:14:39;;;;;;;39.67;27.00;;;14.00;99.90;;;;;;5114812;28;20492;-75
2023/05/11 00:17:04;;;;;;;40.70;27.70;;;13.90;99.90;;;;;;5114570;28;20418;-74
2023/05/11 00:19:30;;;;;;;41.15;28.17;;;13.80;99.90;;;;;;5095227;28;20381;-74
2023/05/11 00:21:57;;;;;;;39.00;26.15;;;13.90;99.90;;;;;;5114467;28;20372;-72
2023/05/11 00:24:25;;;;;;;38.97;26.35;;;13.80;99.90;;;;;;5118236;28;20400;-74
2023/05/11 00:26:51;;;;;;;42.40;26.40;;;13.70;99.90;;;;;;5115546;28;20487;-74
2023/05/11 00:29:17;;;;;;;38.65;25.75;;;13.70;99.90;;;;;;5115390;28;20381;-73
2023/05/11 00:31:46;;;;;;;35.47;24.07;;;13.90;99.90;;;;;;5113735;28;20380;-75
2023/05/11 00:34:16;;;;;;;33.40;23.08;;;13.90;99.90;;;;;;5115373;28;20402;-75
2023/05/11 00:36:42;;;;;;;32.92;22.80;;;13.90;99.90;;;;;;5115667;28;20372;-74
2023/05/11 00:39:08;;;;;;;39.07;23.60;;;14.00;99.10;;;;;;5119017;28;20488;-73
2023/05/11 00:41:34;;;;;;;38.38;23.55;;;14.00;99.90;;;;;;5116874;28;20372;-72
2023/05/11 00:44:00;;;;;;;36.25;24.23;;;13.90;99.90;;;;;;5094246;28;20884;-73
2023/05/11 00:46:27;;;;;;;36.35;24.02;;;14.00;99.90;;;;;;5112500;28;20389;-72
2023/05/11 00:48:52;;;;;;;41.70;25.80;;;13.90;99.90;;;;;;5112740;28;20384;-73
2023/05/11 00:51:19;;;;;;;37.33;23.23;;;13.90;99.90;;;;;;5111251;28;20433;-75
2023/05/11 00:53:45;;;;;;;41.35;25.73;;;14.00;99.90;;;;;;5111694;28;20384;-73
2023/05/11 00:56:10;;;;;;;36.92;24.23;;;13.90;99.90;;;;;;5111477;28;20471;-74
2023/05/11 00:58:36;;;;;;;37.28;24.80;;;13.90;99.90;;;;;;5093523;28;20421;-74
2023/05/11 01:01:03;;;;;;;38.65;25.13;;;13.90;99.90;;;;;;5111245;28;20388;-73
2023/05/11 01:03:28;;;;;;;38.00;24.73;;;13.90;99.90;;;;;;5111035;28;20384;-73
2023/05/11 01:06:12;;;;;;;43.43;26.83;;;13.80;99.90;;;;;;5111280;28;20426;-73
2023/05/11 01:09:04;;;;;;;42.97;26.20;;;13.70;99.90;;;;;;5111901;28;20384;-73
2023/05/11 01:11:46;;;;;;;41.03;24.95;;;13.70;99.90;;;;;;5110993;28;20407;-73
2023/05/11 01:14:20;;;;;;;34.78;23.27;;;13.80;99.90;;;;;;5110896;28;20400;-73
2023/05/11 01:16:52;;;;;;;36.28;22.98;;;13.70;99.90;;;;;;5093134;28;20873;-72
2023/05/11 01:19:47;;;;;;;31.65;22.05;;;13.80;99.90;;;;;;5111023;28;20412;-72
2023/05/11 01:22:33;;;;;;;34.03;23.27;;;13.90;99.90;;;;;;5092186;28;20380;-72
2023/05/11 01:25:31;;;;;;;37.23;23.40;;;13.90;99.90;;;;;;5114789;28;20798;-73
2023/05/11 01:28:21;;;;;;;40.13;24.00;;;13.90;99.80;;;;;;5115140;28;20380;-74
2023/05/11 01:30:50;;;;;;;38.03;23.98;;;13.80;99.30;;;;;;5114853;28;20384;-73
2023/05/11 01:33:23;;;;;;;35.92;23.88;;;13.80;99.90;;;;;;5114733;28;20416;-73
2023/05/11 01:35:55;;;;;;;38.45;25.75;;;13.70;99.90;;;;;;5115029;28;20403;-72
2023/05/11 01:38:23;;;;;;;42.08;26.77;;;13.70;99.90;;;;;;5096346;28;20376;-72
2023/05/11 01:40:54;;;;;;;40.00;26.95;;;13.70;99.90;;;;;;5114485;28;20384;-73
2023/05/11 01:43:23;;;;;;;43.83;27.50;;;13.70;99.90;;;;;;5114510;28;20368;-74
2023/05/11 01:45:51;;;;;;;40.63;26.13;;;13.60;99.90;;;;;;5114280;28;20776;-73
2023/05/11 01:48:21;;;;;;;43.67;28.00;;;13.60;99.90;;;;;;5114565;28;20488;-75
2023/05/11 01:50:48;;;;;;;44.50;27.60;;;13.60;99.90;;;;;;5114592;28;20396;-73
2023/05/11 01:53:16;;;;;;;41.85;26.40;;;13.60;99.90;;;;;;5114015;28;20380;-74
2023/05/11 01:55:44;;;;;;;40.60;25.15;;;13.70;99.90;;;;;;5114474;28;20743;-74
2023/05/11 01:58:13;;;;;;;39.53;23.43;;;13.60;99.90;;;;;;5114166;28;20384;-74
2023/05/11 02:00:42;;;;;;;39.00;22.95;;;13.70;99.90;;;;;;5114320;28;20380;-74
2023/05/11 02:03:08;;;;;;;35.83;21.63;;;13.70;99.90;;;;;;5113515;28;20383;-72
2023/05/11 02:05:34;;;;;;;38.70;21.75;;;13.70;99.90;;;;;;5114055;28;20742;-72
2023/05/11 02:08:03;;;;;;;37.58;21.65;;;13.70;99.90;;;;;;5114311;28;20385;-73
2023/05/11 02:10:29;;;;;;;37.60;22.70;;;13.50;99.90;;;;;;5114141;28;20467;-73
2023/05/11 02:13:16;;;;;;;36.25;21.65;;;13.50;99.90;;;;;;5113447;28;20471;-72
2023/05/11 02:15:43;;;;;;;36.03;22.60;;;13.50;99.90;;;;;;5095068;28;20934;-72
2023/05/11 02:18:12;;;;;;;36.05;23.13;;;13.50;99.90;;;;;;5113904;28;20384;-72
2023/05/11 02:20:42;;;;;;;36.05;22.95;;;13.50;99.90;;;;;;5113837;28;20425;-73
2023/05/11 02:23:09;;;;;;;40.30;24.08;;;13.60;99.90;;;;;;5095257;28;20390;-75
2023/05/11 02:25:39;;;;;;;39.07;24.03;;;13.60;99.90;;;;;;5095911;28;20884;-73
2023/05/11 02:28:05;;;;;;;42.05;26.10;;;13.50;99.90;;;;;;5113805;28;20380;-73
2023/05/11 02:30:33;;;;;;;41.60;23.53;;;13.60;99.90;;;;;;5095372;28;20466;-73
2023/05/11 02:33:04;;;;;;;39.13;24.73;;;13.60;99.90;;;;;;5112698;28;20449;-72
2023/05/11 02:35:32;;;;;;;40.40;25.42;;;13.60;99.90;;;;;;5112329;28;20392;-74
2023/05/11 02:38:00;;;;;;;41.33;25.48;;;13.50;99.90;;;;;;5113559;28;20376;-73
2023/05/11 02:40:32;;;;;;;41.03;24.40;;;13.50;99.90;;;;;;5113525;28;20457;-73
2023/05/11 02:43:06;;;;;;;43.08;26.40;;;13.50;99.90;;;;;;5112772;28;20377;-72
2023/05/11 02:45:34;;;;;;;46.08;26.83;;;13.40;99.90;;;;;;5114547;28;20755;-74
2023/05/11 02:48:04;;;;;;;44.90;27.67;;;13.40;99.90;;;;;;5113166;28;20422;-73
2023/05/11 02:50:36;;;;;;;46.40;26.17;;;13.40;99.90;;;;;;5113411;28;20380;-74
2023/05/11 02:53:06;;;;;;;46.58;27.05;;;13.40;99.90;;;;;;5112758;28;20380;-75
2023/05/11 02:55:32;;;;;;;46.03;27.23;;;13.50;99.90;;;;;;5113328;28;20742;-74
2023/05/11 02:57:57;;;;;;;49.30;28.43;;;13.40;99.90;;;;;;5114374;28;20376;-73
2023/05/11 03:00:23;;;;;;;46.17;26.63;;;13.40;99.90;;;;;;5114294;28;20757;-73
2023/05/11 03:02:49;;;;;;;45.78;26.75;;;13.40;99.90;;;;;;5095452;28;20440;-72
2023/05/11 03:05:15;;;;;;;41.17;25.50;;;13.40;99.90;;;;;;5114946;28;20434;-73
2023/05/11 03:07:41;;;;;;;41.00;24.83;;;13.40;99.90;;;;;;5114066;28;20885;-73
2023/05/11 03:10:08;;;;;;;42.20;26.20;;;13.40;99.90;;;;;;5094753;28;20411;-73
2023/05/11 03:12:34;;;;;;;43.13;25.33;;;13.40;99.90;;;;;;5113093;28;20779;-74
2023/05/11 03:15:02;;;;;;;41.93;25.33;;;13.40;99.90;;;;;;5112997;28;20403;-74
2023/05/11 03:17:29;;;;;;;43.70;24.75;;;13.30;99.90;;;;;;5095438;28;20400;-73
2023/05/11 03:19:56;;;;;;;42.85;25.95;;;13.30;99.90;;;;;;5112750;28;20376;-73
2023/05/11 03:22:23;;;;;;;48.60;27.53;;;13.30;99.90;;;;;;5094629;28;20374;-73
2023/05/11 03:24:50;;;;;;;50.20;29.15;;;13.20;99.90;;;;;;5111512;28;20453;-74
2023/05/11 03:27:17;;;;;;;50.40;29.50;;;13.20;99.90;;;;;;5116722;28;20380;-72
2023/05/11 03:29:44;;;;;;;50.60;29.77;;;13.10;99.90;;;;;;5097542;28;20419;-74
2023/05/11 03:32:10;;;;;;;56.97;31.88;;;13.00;99.90;;;;;;5114000;28;20780;-74
2023/05/11 03:34:36;;;;;;;53.40;31.00;;;12.90;99.90;;;;;;5115248;28;20774;-73
2023/05/11 03:37:03;;;;;;;57.30;31.87;;;12.90;99.90;;;;;;5113952;28;20380;-73
2023/05/11 03:39:31;;;;;;;60.70;32.28;;;12.90;99.90;;;;;;5114469;28;20376;-74
2023/05/11 03:41:58;;;;;;;56.67;31.48;;;12.80;99.90;;;;;;5114422;28;20405;-75
2023/05/11 03:44:25;;;;;;;59.38;33.00;;;12.80;99.90;;;;;;5115172;28;20396;-74
2023/05/11 03:46:53;;;;;;;58.80;33.42;;;13.00;99.90;;;;;;5114287;28;20448;-74
2023/05/11 03:49:19;;;;;;;60.33;34.60;;;12.90;99.90;;;;;;5115645;28;20380;-75
2023/05/11 03:51:46;;;;;;;61.95;34.40;;;12.90;99.90;;;;;;5115395;28;20373;-74
2023/05/11 03:54:12;;;;;;;63.10;33.75;;;12.90;99.90;;;;;;5115388;28;20398;-74
2023/05/11 03:56:38;;;;;;;64.47;33.67;;;13.00;99.90;;;;;;5115244;28;20451;-74
2023/05/11 03:59:04;;;;;;;63.90;34.83;;;13.00;99.90;;;;;;5114181;28;20426;-75
2023/05/11 04:01:31;;;;;;;55.47;32.87;;;13.10;99.90;;;;;;5111850;28;20373;-73
2023/05/11 04:03:57;;;;;;;56.30;32.78;;;13.10;99.90;;;;;;5113348;28;20384;-73
2023/05/11 04:06:22;;;;;;;64.80;34.60;;;13.10;99.90;;;;;;5112132;28;20372;-73
2023/05/11 04:08:49;;;;;;;56.60;33.35;;;13.20;99.90;;;;;;5111899;28;20471;-74
2023/05/11 04:11:14;;;;;;;59.93;33.33;;;13.20;99.90;;;;;;5111764;28;20387;-71
2023/05/11 04:13:40;;;;;;;54.30;31.20;;;13.40;99.90;;;;;;5111629;28;20384;-73
2023/05/11 04:16:06;;;;;;;61.03;33.07;;;13.30;99.90;;;;;;5111856;28;20397;-74
2023/05/11 04:18:31;;;;;;;56.63;31.25;;;13.40;99.90;;;;;;5112186;28;20714;-73
2023/05/11 04:20:57;;;;;;;58.00;33.20;;;13.40;99.90;;;;;;5111518;28;20387;-73
2023/05/11 04:23:22;;;;;;;54.90;31.93;;;13.50;99.90;;;;;;5112291;28;20438;-73
2023/05/11 04:25:55;;;;;;;61.67;33.45;;;13.40;99.90;;;;;;5111618;28;20384;-74
2023/05/11 04:28:22;;;;;;;61.15;33.15;;;13.40;99.90;;;;;;5111827;28;20787;-74
2023/05/11 04:30:55;;;;;;;59.67;35.70;;;13.40;99.90;;;;;;5111636;28;20384;-73
2023/05/11 04:33:21;;;;;;;61.70;34.53;;;13.40;99.90;;;;;;5111741;28;20748;-74
2023/05/11 04:35:52;;;;;;;58.55;33.75;;;13.40;99.90;;;;;;5111214;28;20408;-74
2023/05/11 04:38:19;;;;;;;55.13;33.30;;;13.40;99.90;;;;;;5111844;28;20880;-72
2023/05/11 04:40:46;;;;;;;56.58;33.03;;;13.40;99.90;;;;;;5111390;28;20515;-74
2023/05/11 04:43:12;;;;;;;56.67;33.95;;;13.40;99.90;;;;;;5111020;28;20388;-74
2023/05/11 04:45:38;;;;;;;54.33;33.37;;;13.50;99.90;;;;;;5111568;28;20463;-73
2023/05/11 04:48:05;;;;;;;58.70;33.63;;;13.50;99.90;;;;;;5111431;28;20408;-74
2023/05/11 04:50:30;;;;;;;52.40;31.83;;;13.40;99.90;;;;;;5112206;28;20410;-74
2023/05/11 04:52:56;;;;;;;52.83;31.40;;;13.40;99.90;;;;;;5111629;28;20388;-75
2023/05/11 04:55:22;;;;;;;47.10;30.37;;;13.50;99.90;;;;;;5111721;28;20414;-74
2023/05/11 04:57:47;;;;;;;54.13;31.37;;;13.60;99.90;;;;;;5113780;28;20481;-75
2023/05/11 05:00:13;;;;;;;48.20;30.90;;;13.60;99.90;;;;;;5120838;28;20840;-75
2023/05/11 05:02:39;;;;;;;48.72;29.50;;;13.60;99.90;;;;;;5119530;28;20376;-74
2023/05/11 05:05:05;;;;;;;50.47;29.67;;;13.60;99.90;;;;;;5119254;28;20437;-74
2023/05/11 05:07:30;;;;;;;48.08;28.20;;;13.60;99.90;;;;;;5121350;28;20690;-74
2023/05/11 05:09:56;;;;;;;43.30;28.50;;;13.70;99.90;;;;;;5119634;28;20380;-72
2023/05/11 05:12:21;;;;;;;45.05;29.80;;;13.90;99.90;;;;;;5119413;28;20376;-75
2023/05/11 05:14:47;;;;;;;52.13;29.75;;;13.90;99.90;;;;;;5118654;28;20400;-74
2023/05/11 05:17:12;;;;;;;51.00;30.70;;;13.90;99.90;;;;;;5100113;28;20368;-73
2023/05/11 05:19:38;;;;;;;54.60;31.63;;;14.00;99.90;;;;;;5118165;28;20461;-75
2023/05/11 05:22:04;;;;;;;53.08;32.47;;;14.00;99.90;;;;;;5116779;28;20740;-74
2023/05/11 05:24:29;;;;;;;49.22;30.20;;;14.00;99.90;;;;;;5119895;28;20415;-75
2023/05/11 05:26:55;;;;;;;54.72;31.83;;;14.00;99.90;;;;;;5117737;28;20380;-74
2023/05/11 05:29:20;;;;;;;51.17;30.77;;;14.00;99.90;;;;;;5117416;28;20908;-73
2023/05/11 05:31:46;;;;;;;49.10;30.20;;;14.10;99.90;;;;;;5117928;28;20455;-74
2023/05/11 05:34:11;;;;;;;49.43;31.30;;;14.10;99.90;;;;;;5117538;28;20510;-74
2023/05/11 05:36:38;;;;;;;47.10;29.60;;;14.20;99.90;;;;;;5118181;28;20763;-73
2023/05/11 05:39:08;;;;;;;48.70;30.35;;;14.40;95.80;;;;;;5118459;28;20394;-74
2023/05/11 05:41:35;;;;;;;45.38;29.58;;;14.50;94.70;;;;;;5120382;28;20400;-74
2023/05/11 05:44:00;;;;;;;50.30;29.15;;;14.60;94.10;;;;;;5120280;28;20391;-76
2023/05/11 05:46:26;;;;;;;48.90;29.10;;;14.60;92.80;;;;;;5119425;28;20440;-76
2023/05/11 05:48:51;;;;;;;47.87;29.93;;;14.60;93.50;;;;;;5117690;28;20449;-73
2023/05/11 05:51:17;;;;;;;47.87;29.43;;;14.70;92.30;;;;;;5115933;28;20507;-73
2023/05/11 05:53:42;;;;;;;50.75;31.08;;;14.70;93.00;;;;;;5116344;28;20408;-75
2023/05/11 05:56:08;;;;;;;48.60;29.77;;;14.80;91.60;;;;;;5117796;28;20372;-75
2023/05/11 05:58:34;;;;;;;46.35;30.10;;;14.80;89.50;;;;;;5115635;28;20807;-73
2023/05/11 06:01:00;;;;;;;52.05;32.30;;;14.90;92.00;;;;;;5114162;28;20411;-75
2023/05/11 06:03:26;;;;;;;51.42;32.40;;;14.90;92.80;;;;;;5114758;28;20459;-74
2023/05/11 06:05:51;;;;;;;52.33;32.43;;;14.90;89.30;;;;;;5115406;28;20388;-73
2023/05/11 06:08:17;;;;;;;53.00;31.27;;;15.00;85.60;;;;;;5115165;28;20472;-75
2023/05/11 06:10:42;;;;;;;54.58;32.85;;;15.20;82.10;;;;;;5113832;28;20386;-73
2023/05/11 06:13:08;;;;;;;51.25;32.22;;;15.10;84.00;;;;;;5114039;28;20388;-75
2023/05/11 06:15:34;;;;;;;53.72;33.10;;;15.10;82.90;;;;;;5114691;28;20407;-72
2023/05/11 06:17:59;;;;;;;52.57;32.70;;;15.00;84.30;;;;;;5114319;28;20391;-74
2023/05/11 06:20:25;;;;;;;57.10;33.70;;;15.10;86.10;;;;;;5114514;28;20372;-75
2023/05/11 06:22:50;;;;;;;54.60;33.43;;;15.20;84.80;;;;;;5113371;28;20426;-74
2023/05/11 06:25:16;;;;;;;52.38;32.53;;;15.30;80.90;;;;;;5114316;28;20387;-78
2023/05/11 06:27:42;;;;;;;52.28;32.03;;;15.70;78.90;;;;;;5114431;28;20464;-74
2023/05/11 06:30:08;;;;;;;51.53;30.63;;;15.80;79.50;;;;;;5095818;28;20448;-73
2023/05/11 06:32:33;;;;;;;54.58;30.00;;;15.80;72.20;;;;;;5113492;28;20387;-74
2023/05/11 06:34:59;;;;;;;48.50;29.77;;;15.80;72.10;;;;;;5114267;28;20397;-73
2023/05/11 06:37:27;;;;;;;46.63;29.97;;;15.80;70.10;;;;;;5113833;28;20416;-73
2023/05/11 06:39:53;;;;;;;48.70;29.80;;;15.70;72.70;;;;;;5113452;28;20920;-74
2023/05/11 06:42:18;;;;;;;49.17;30.73;;;15.80;71.00;;;;;;5113670;28;20411;-74
2023/05/11 06:44:44;;;;;;;48.57;29.73;;;15.90;72.40;;;;;;5114144;28;20468;-74
2023/05/11 06:47:10;;;;;;;44.67;29.13;;;16.20;69.80;;;;;;5114565;28;20384;-74
2023/05/11 06:49:35;;;;;;;46.10;30.20;;;16.60;62.60;;;;;;5096756;28;20384;-74
2023/05/11 06:52:01;;;;;;;47.28;27.30;;;16.90;61.60;;;;;;5094756;28;20427;-75
2023/05/11 06:54:27;;;;;;;42.28;26.08;;;17.10;55.80;;;;;;5112864;28;20400;-73
2023/05/11 06:56:52;;;;;;;43.13;26.92;;;17.00;57.00;;;;;;5113646;28;20388;-75
2023/05/11 06:59:18;;;;;;;42.90;26.75;;;16.90;57.90;;;;;;5113235;28;20369;-75
2023/05/11 07:01:44;;;;;;;42.77;27.60;;;16.70;61.20;;;;;;5112560;28;20460;-74
2023/05/11 07:04:09;;;;;;;43.00;28.07;;;16.40;60.70;;;;;;5095147;28;20416;-73
2023/05/11 07:06:35;;;;;;;43.20;27.70;;;16.40;61.70;;;;;;5113051;28;20384;-74
2023/05/11 07:09:02;;;;;;;41.35;27.63;;;16.40;58.70;;;;;;5112551;28;20387;-75
2023/05/11 07:11:29;;;;;;;44.42;28.60;;;16.30;60.30;;;;;;5112217;28;20380;-73
2023/05/11 07:13:55;;;;;;;42.90;26.98;;;16.60;62.90;;;;;;5112506;28;20672;-75
2023/05/11 07:16:20;;;;;;;46.33;27.42;;;16.60;60.80;;;;;;5112778;28;20408;-74
2023/05/11 07:18:46;;;;;;;43.00;26.88;;;16.40;61.50;;;;;;5112586;28;20391;-74
2023/05/11 07:21:11;;;;;;;44.70;27.50;;;16.30;62.60;;;;;;5111955;28;20385;-74
2023/05/11 07:23:37;;;;;;;45.10;27.60;;;16.30;64.30;;;;;;5113081;28;20483;-73
2023/05/11 07:26:07;;;;;;;42.15;27.77;;;16.30;61.50;;;;;;5112725;28;20415;-76
2023/05/11 07:28:36;;;;;;;47.17;28.63;;;16.30;64.30;;;;;;5112818;28;20422;-74
2023/05/11 07:31:02;;;;;;;48.05;29.02;;;16.50;61.60;;;;;;5111838;28;20376;-73
2023/05/11 07:33:28;;;;;;;41.03;27.87;;;16.90;60.70;;;;;;5113095;28;20407;-73
2023/05/11 07:35:53;;;;;;;44.07;27.60;;;17.30;55.00;;;;;;5113250;28;20396;-73
2023/05/11 07:38:19;;;;;;;43.10;27.07;;;17.50;53.00;;;;;;5112487;28;20376;-74
2023/05/11 07:40:44;;;;;;;37.97;25.30;;;17.90;49.20;;;;;;5112549;28;20457;-73
2023/05/11 07:43:10;;;;;;;36.47;24.90;;;18.10;45.50;;;;;;5111586;28;20388;-74
2023/05/11 07:45:35;;;;;;;39.27;25.70;;;18.30;44.00;;;;;;5112656;28;20388;-73
2023/05/11 07:48:01;;;;;;;39.90;26.15;;;18.40;40.40;;;;;;5112182;28;20380;-75
2023/05/11 07:50:27;;;;;;;39.08;25.52;;;18.50;39.70;;;;;;5093766;28;20384;-73
2023/05/11 07:52:52;;;;;;;35.77;23.30;;;18.60;40.80;;;;;;5111463;28;20512;-75
2023/05/11 07:55:18;;;;;;;39.73;24.47;;;18.70;38.40;;;;;;5093967;28;20533;-75
2023/05/11 07:57:44;;;;;;;46.20;28.77;;;18.60;38.30;;;;;;5112082;28;20529;-73
2023/05/11 08:00:10;;;;;;;52.67;31.10;;;18.40;43.30;;;;;;5112233;28;20373;-74
2023/05/11 08:02:36;;;;;;;52.72;31.90;;;18.10;44.10;;;;;;5111535;28;20376;-73
2023/05/11 08:05:02;;;;;;;57.37;32.43;;;17.70;48.30;;;;;;5094052;28;20391;-74
2023/05/11 08:07:28;;;;;;;54.08;31.33;;;17.40;50.20;;;;;;5112118;28;20745;-72
2023/05/11 08:09:54;;;;;;;53.35;30.88;;;17.00;53.70;;;;;;5112151;28;20385;-75
2023/05/11 08:12:19;;;;;;;51.53;30.17;;;16.80;56.00;;;;;;5111474;28;20380;-74
2023/05/11 08:14:45;;;;;;;58.27;31.73;;;16.90;54.20;;;;;;5112202;28;20412;-74
2023/05/11 08:17:10;;;;;;;55.97;30.45;;;16.90;55.90;;;;;;5112348;28;20413;-73
2023/05/11 08:19:36;;;;;;;52.67;30.40;;;17.10;51.90;;;;;;5112359;28;20440;-74
2023/05/11 08:22:01;;;;;;;51.30;28.23;;;17.20;49.10;;;;;;5093113;28;20534;-74
2023/05/11 08:24:27;;;;;;;47.60;26.00;;;17.40;47.60;;;;;;5112745;28;20403;-73
2023/05/11 08:26:52;;;;;;;48.00;29.37;;;17.60;45.40;;;;;;5112583;28;20419;-75
2023/05/11 08:29:18;;;;;;;46.42;26.05;;;17.60;47.20;;;;;;5112535;28;20736;-75
2023/05/11 08:31:43;;;;;;;46.13;27.45;;;17.70;43.00;;;;;;5093421;28;20714;-75
2023/05/11 08:34:10;;;;;;;46.77;26.60;;;17.80;43.70;;;;;;5111657;28;20415;-74
2023/05/11 08:36:35;;;;;;;52.88;28.80;;;17.90;41.90;;;;;;5093939;28;20384;-74
2023/05/11 08:39:01;;;;;;;48.37;29.50;;;18.10;41.40;;;;;;5111944;28;20384;-73
2023/05/11 08:41:27;;;;;;;49.80;28.65;;;18.10;42.40;;;;;;5111347;28;20459;-75
2023/05/11 08:43:56;;;;;;;49.70;28.40;;;18.20;42.40;;;;;;5113030;28;20400;-75
2023/05/11 08:46:25;;;;;;;46.80;26.27;;;18.40;39.50;;;;;;5093368;28;20912;-74
2023/05/11 08:48:51;;;;;;;36.45;21.85;;;18.30;38.10;;;;;;5093572;28;20380;-75
2023/05/11 08:51:17;;;;;;;35.08;21.98;;;18.60;36.40;;;;;;5111818;28;20392;-75
2023/05/11 08:53:43;;;;;;;42.67;25.33;;;18.70;35.50;;;;;;5113095;28;20864;-75
2023/05/11 08:56:10;;;;;;;43.30;26.58;;;18.60;36.20;;;;;;5112760;28;20433;-76
2023/05/11 08:58:37;;;;;;;41.58;25.23;;;18.70;36.90;;;;;;5114141;28;20377;-73
2023/05/11 09:01:08;;;;;;;48.20;30.00;;;18.90;37.50;;;;;;5115417;28;20376;-76
2023/05/11 09:03:35;;;;;;;46.13;27.33;;;19.10;35.60;;;;;;5114620;28;20376;-75
2023/05/11 09:06:04;;;;;;;41.92;26.27;;;19.40;34.60;;;;;;5113113;28;20745;-76
2023/05/11 09:08:31;;;;;;;40.22;24.35;;;19.80;32.40;;;;;;5112581;28;20511;-75
2023/05/11 09:10:57;;;;;;;46.10;28.52;;;20.00;29.70;;;;;;5111380;28;20593;-75
2023/05/11 09:13:24;;;;;;;44.72;28.10;;;19.80;32.00;;;;;;5112220;28;20388;-74
2023/05/11 09:15:50;;;;;;;44.25;26.20;;;19.50;34.20;;;;;;5093762;28;20404;-74
2023/05/11 09:18:16;;;;;;;33.30;22.08;;;19.50;34.90;;;;;;5111966;28;20430;-75
2023/05/11 09:20:42;;;;;;;30.20;19.30;;;19.30;32.80;;;;;;5114516;28;20376;-74
2023/05/11 09:23:16;;;;;;;32.70;20.10;;;19.30;31.90;;;;;;5098120;28;20385;-73
2023/05/11 09:25:42;;;;;;;33.28;20.20;;;19.20;31.90;;;;;;5111129;28;20377;-73
2023/05/11 09:28:11;;;;;;;34.08;20.90;;;19.20;31.50;;;;;;5111333;28;20395;-74
2023/05/11 09:30:37;;;;;;;36.55;22.23;;;19.40;33.40;;;;;;5092989;28;20717;-72
2023/05/11 09:33:03;;;;;;;36.90;22.57;;;19.10;32.00;;;;;;5110194;28;20391;-75
2023/05/11 09:35:34;;;;;;;38.60;23.63;;;18.80;35.90;;;;;;5110955;28;20433;-72
2023/05/11 09:38:01;;;;;;;39.42;24.13;;;18.70;36.40;;;;;;5111046;28;20373;-73
2023/05/11 09:40:27;;;;;;;37.33;23.45;;;18.40;38.50;;;;;;5110783;28;20380;-73
2023/05/11 09:42:54;;;;;;;42.72;24.95;;;18.20;43.60;;;;;;5110019;28;20373;-72
2023/05/11 09:45:42;;;;;;;42.08;22.15;;;17.50;48.70;;;;;;5114102;28;20888;-73
2023/05/11 09:48:20;;;;;;;41.03;23.42;;;16.70;56.10;;;;;;5114327;28;20463;-74
2023/05/11 09:50:51;;;;;;;41.75;23.05;;;16.60;60.00;;;;;;5114209;28;20390;-75
2023/05/11 09:53:17;;;;;;;41.97;22.27;;;16.50;59.30;;;;;;5095736;28;20385;-74
2023/05/11 09:55:53;;;;;;;40.90;23.80;;;16.50;61.20;;;;;;5113972;28;20407;-72
2023/05/11 09:58:19;;;;;;;49.17;27.77;;;16.60;58.70;;;;;;5114346;28;20471;-73
2023/05/11 10:00:52;;;;;;;42.05;23.88;;;16.80;60.30;;;;;;5114228;28;20446;-73
2023/05/11 10:03:18;;;;;;;37.83;22.27;;;17.30;55.70;;;;;;5114179;28;20372;-73
2023/05/11 10:05:58;;;;;;;41.53;22.63;;;17.30;50.40;;;;;;5114225;28;20888;-72
2023/05/11 10:08:34;;;;;;;37.00;21.10;;;17.10;49.20;;;;;;5114027;28;20372;-73
2023/05/11 10:11:01;;;;;;;43.42;25.58;;;16.80;52.80;;;;;;5095400;28;20455;-72
2023/05/11 10:13:28;;;;;;;42.97;25.00;;;16.90;56.10;;;;;;5114753;28;20384;-74
2023/05/11 10:15:55;;;;;;;42.83;23.73;;;17.10;54.30;;;;;;5114143;28;20499;-74
2023/05/11 10:18:21;;;;;;;46.92;24.00;;;17.20;52.30;;;;;;5113837;28;20409;-74
2023/05/11 10:20:46;;;;;;;46.28;25.20;;;17.10;52.40;;;;;;5095166;28;20775;-74
2023/05/11 10:23:13;;;;;;;45.33;23.58;;;17.10;54.20;;;;;;5112995;28;20406;-74
2023/05/11 10:25:40;;;;;;;33.58;20.17;;;17.30;52.70;;;;;;5113628;28;20376;-72
2023/05/11 10:28:05;;;;;;;36.20;20.00;;;17.60;42.70;;;;;;5113463;28;20387;-73
2023/05/11 10:30:33;;;;;;;37.65;20.05;;;17.70;42.70;;;;;;5113278;28;20476;-73
2023/05/11 10:33:02;;;;;;;35.93;20.00;;;17.70;41.80;;;;;;5113224;28;20799;-74
2023/05/11 10:35:28;;;;;;;34.22;20.15;;;18.00;39.70;;;;;;5113749;28;20408;-73
2023/05/11 10:37:53;;;;;;;34.90;20.55;;;18.30;41.70;;;;;;5113601;28;20383;-73
2023/05/11 10:40:19;;;;;;;35.03;21.08;;;18.60;36.80;;;;;;5113181;28;20434;-74
2023/05/11 10:43:03;;;;;;;33.92;21.25;;;19.10;34.10;;;;;;5112531;28;20418;-74
2023/05/11 10:45:43;;;;;;;34.25;21.27;;;19.70;32.50;;;;;;5094950;28;20388;-71
2023/05/11 10:48:47;;;;;;;33.60;20.45;;;19.90;31.50;;;;;;5094840;28;20395;-74
2023/05/11 10:51:49;;;;;;;35.97;21.15;;;19.40;34.20;;;;;;5112985;28;20459;-74
2023/05/11 10:54:31;;;;;;;36.53;21.77;;;19.40;34.60;;;;;;5112860;28;20738;-75
2023/05/11 10:57:06;;;;;;;36.53;20.88;;;19.90;32.00;;;;;;5112233;28;20846;-74
2023/05/11 11:00:08;;;;;;;29.92;18.75;;;20.20;32.00;;;;;;5113885;28;20381;-73
2023/05/11 11:02:34;;;;;;;40.95;22.05;;;20.00;29.10;;;;;;5112968;28;20793;-72
2023/05/11 11:05:04;;;;;;;36.22;20.67;;;20.00;29.80;;;;;;5112380;28;20388;-73
2023/05/11 11:07:30;;;;;;;34.40;21.27;;;20.20;27.70;;;;;;5112673;28;20373;-73
2023/05/11 11:09:59;;;;;;;38.90;22.77;;;20.40;27.30;;;;;;5113012;28;20415;-74
2023/05/11 11:12:26;;;;;;;41.80;22.38;;;20.40;28.10;;;;;;5112175;28;20376;-72
2023/05/11 11:14:57;;;;;;;35.17;21.88;;;20.50;27.60;;;;;;5112962;28;20392;-75
2023/05/11 11:17:30;;;;;;;35.70;23.60;;;20.40;26.90;;;;;;5113530;28;20437;-72
2023/05/11 11:19:57;;;;;;;43.00;23.83;;;20.30;29.00;;;;;;5114445;28;20464;-74
2023/05/11 11:22:35;;;;;;;42.70;25.20;;;20.10;27.20;;;;;;5114821;28;20382;-73
2023/05/11 11:25:06;;;;;;;39.83;24.55;;;19.90;27.20;;;;;;5114831;28;20395;-73
2023/05/11 11:27:44;;;;;;;40.83;23.35;;;20.00;27.30;;;;;;5117015;28;20464;-73
2023/05/11 11:30:24;;;;;;;45.20;25.17;;;19.80;28.40;;;;;;5117473;28;20550;-72
2023/05/11 11:32:54;;;;;;;43.20;23.13;;;19.60;28.60;;;;;;5122365;28;20377;-73
2023/05/11 11:35:38;;;;;;;43.67;24.75;;;19.50;28.90;;;;;;5123146;28;20400;-73
2023/05/11 11:38:09;;;;;;;44.90;25.63;;;19.20;31.10;;;;;;5122779;28;20400;-74
2023/05/11 11:40:39;;;;;;;50.05;26.60;;;19.50;31.70;;;;;;5122754;28;20372;-73
2023/05/11 11:43:19;;;;;;;39.45;24.60;;;20.40;29.20;;;;;;5116825;28;20461;-73
2023/05/11 11:45:53;;;;;;;43.60;26.70;;;21.00;26.30;;;;;;5115228;28;20388;-74
2023/05/11 11:48:28;;;;;;;39.72;22.33;;;21.20;24.40;;;;;;5113670;28;20416;-74
2023/05/11 11:51:07;;;;;;;45.33;24.30;;;21.50;22.80;;;;;;5115071;28;20466;-72
2023/05/11 11:53:36;;;;;;;41.65;24.27;;;20.30;25.00;;;;;;5119068;28;20381;-73
2023/05/11 11:56:28;;;;;;;37.92;23.08;;;20.30;26.90;;;;;;5117325;28;20424;-73
2023/05/11 11:58:59;;;;;;;42.70;23.42;;;20.80;25.00;;;;;;5110160;28;20441;-76
2023/05/11 12:01:28;;;;;;;38.15;22.15;;;20.60;25.50;;;;;;5121728;28;20384;-74
2023/05/11 12:04:27;;;;;;;34.60;21.52;;;20.40;26.70;;;;;;5121104;28;20376;-72
2023/05/11 12:06:57;;;;;;;39.85;21.95;;;20.10;25.00;;;;;;5118555;28;20394;-74
2023/05/11 12:09:23;;;;;;;38.10;20.70;;;19.80;26.70;;;;;;5121181;28;20379;-73
2023/05/11 12:11:49;;;;;;;38.22;20.80;;;19.50;27.60;;;;;;5122479;28;20429;-73
2023/05/11 12:14:15;;;;;;;43.42;24.70;;;19.40;28.50;;;;;;5121495;28;20388;-75
2023/05/11 12:16:41;;;;;;;40.50;23.05;;;19.30;31.10;;;;;;5120861;28;20943;-73
2023/05/11 12:19:06;;;;;;;43.25;24.80;;;18.70;33.40;;;;;;5117425;28;20407;-73
2023/05/11 12:21:32;;;;;;;46.87;24.40;;;18.70;34.70;;;;;;5115575;28;20368;-72
2023/05/11 12:24:03;;;;;;;40.83;23.05;;;18.70;35.90;;;;;;5054380;28;1737812;-74
2023/05/11 12:26:30;;;;;;;43.25;25.33;;;18.50;35.50;;;;;;5119922;28;20423;-72
2023/05/11 12:29:11;;;;;;;41.83;23.45;;;18.50;36.50;;;;;;5118255;28;20404;-73
2023/05/11 12:31:38;;;;;;;37.45;22.52;;;18.50;32.10;;;;;;5119575;28;20388;-72